Grafton, ND

9:20 AM CDT on March 26, 2017 (GMT -0500)
Grafton-in town | | Change Station
Active Advisory: Flood Watch Active Notice: Flood Watch

Elev 833 ft 48.41 °N, 97.41 °W | Updated 1 second ago

Mostly Cloudy
Mostly Cloudy
33.8 °F
Feels Like 28 °F
N
7.0
Wind Variable Wind from ESE

Today
High -- | Low -- °F
--% Chance of Precip.
Yesterday
High -- | Low -- °F
Precip. -- in
Pressure 29.97 in
Visibility 5.0 miles
Clouds Mostly Cloudy 8500 ft
Windchill 28 °F
Dew Point 31 °F
Humidity 91%
Rainfall 0.00 in
Snow Depth Not available.
7:19 AM 7:51 PM
Waning Crescent, 3% visible
METAR KGAF 261415Z AUTO 18008KT 5SM BR BKN085 01/01 A2997 RMK AO2
Pressure 29.97 in
Visibility 5.0 miles
Clouds Mostly Cloudy 8500 ft
Windchill 28 °F
Dew Point 31 °F
Humidity 91%
Rainfall 0.00 in
Snow Depth Not available.
7:19 AM 7:51 PM
Waning Crescent, 3% visible
METAR KGAF 261415Z AUTO 18008KT 5SM BR BKN085 01/01 A2997 RMK AO2

Get Your Daily Forecast Email!

Thanks for signing up!

Be on the lookout for a verification email in your inbox.

You'll start receiving severe weather alerts in your inbox..

×

10-Day Weather Forecast

Almanac

Astronomy

Mar. 26, 2017 Rise Set
Actual Time
Civil Twilight
Nautical Twilight
Astronomical Twilight
Moon
Length of Visible Light
Length of Day
Tomorrow will be .
, % of the Moon is Illuminated

Today's Extremes

State Highs State Lows

Community

WunderPhotos

Upload Photos

1,962,540 photos uploaded!

WunderBlog® & News

Nearby

Air Quality

  Air Quality AQ Index Pollutant
Not available.

Snow Depth

Station Depth Elevation

Earthquake Activity

City Distance Mag. Time & Date
Minimum magnitude displayed is 2.5.

Earthquake Activity

City Distance Mag. Time & Date
Minimum magnitude displayed is 2.5.

Coastal Water Temperatures

Place Temperature

Stations

Nearby Weather Stations

Station Location Temp. Windchill Dew Point Humidity Wind Precip. Elev Updated Type
                   

Watches & Warnings

Flood Watch
Issued: 8:25 PM CDT Mar. 25, 2017 – National Weather Service

The Flood Watch continues for
the Park River at Grafton
* from Wednesday afternoon until further notice.
* At 7:30 PM Saturday the stage was 9.1 feet.
* Major flooding is possible.
* Flood stage is 12.0 feet.
* Forecast... the river may reach minor flood stage by Wednesday
afternoon and then cresting between 14 and 16 feet around
April 1st.
* A Flood Warning will be issued when the river starts to definitely
respond to the snowmelt runoff from the Upper Park river basin.
* Local ice-jam flooding can quickly raise river levels up to three
feet at places on the flood plain.


Daily 7pm CDT/6pm CST forecast stage in feet:

date sun Mon Tue Wed Thu Fri Sat
(month/day) 03/26 03/27 03/28 03/29 03/30 03/31 04/01
Grafton 8.9 9.8 11.0 12.2 13.4 14.6 15.0
lat... Lon 4850 9749 4839 9750 4842 9716 4851 9715